WZZ411 ENAL-EPGD
Flight info
| Callsign | WZZ411 |
|---|---|
| Flight time | N/A |
| Altitude | 35000 |
| Route | GIGIR DCT VATEX DCT PENOR N133 DOMAG T240 OGDAV |
| Aircraft | A321/M-SDE1E2E3FGIJ1J4RWXY/LB1 |
Departure
| Time | 2026-04-22 08:14 |
|---|---|
| Airport | Ålesund Airport (ENAL) |
Arrival
| Time | N/A |
|---|---|
| Airport | Gdańsk Lech Wałęsa Airport (EPGD) |
| Time | Latitude | Longitude | Altitude | Speed | Heading |
|---|---|---|---|---|---|
| 2026-04-22 07:54 | 62.55939 | 6.11534 | 69 ft | 0 kts | 153° |
| 2026-04-22 08:10 | 62.55935 | 6.11548 | 69 ft | 1 kts | 115° |
| 2026-04-22 08:10 | 62.55935 | 6.11566 | 59 ft | 3 kts | 87° |
| 2026-04-22 08:11 | 62.55965 | 6.11598 | 67 ft | 9 kts | 6° |
| 2026-04-22 08:11 | 62.56038 | 6.11610 | 66 ft | 11 kts | 17° |
| 2026-04-22 08:11 | 62.56098 | 6.11801 | 67 ft | 13 kts | 64° |
| 2026-04-22 08:11 | 62.56138 | 6.11982 | 68 ft | 14 kts | 62° |
| 2026-04-22 08:12 | 62.56184 | 6.12083 | 62 ft | 15 kts | 31° |
| 2026-04-22 08:12 | 62.56276 | 6.12182 | 65 ft | 15 kts | 47° |
| 2026-04-22 08:12 | 62.56336 | 6.12391 | 68 ft | 19 kts | 62° |
| 2026-04-22 08:12 | 62.56406 | 6.12707 | 62 ft | 20 kts | 65° |
| 2026-04-22 08:13 | 62.56441 | 6.12959 | 65 ft | 12 kts | 33° |
| 2026-04-22 08:13 | 62.56438 | 6.12796 | 63 ft | 33 kts | 238° |
| 2026-04-22 08:13 | 62.56223 | 6.11836 | 67 ft | 107 kts | 244° |
| 2026-04-22 08:13 | 62.55811 | 6.09968 | 140 ft | 158 kts | 244° |
| 2026-04-22 08:14 | 62.55341 | 6.07867 | 943 ft | 153 kts | 245° |
| 2026-04-22 08:14 | 62.54875 | 6.05740 | 1661 ft | 162 kts | 245° |
| 2026-04-22 08:14 | 62.54363 | 6.03390 | 2004 ft | 183 kts | 245° |
| 2026-04-22 08:14 | 62.53791 | 6.00779 | 2266 ft | 204 kts | 245° |
| 2026-04-22 08:15 | 62.52926 | 5.98139 | 2466 ft | 231 kts | 219° |
| 2026-04-22 08:15 | 62.51367 | 5.96903 | 2896 ft | 251 kts | 180° |
| 2026-04-22 08:15 | 62.49689 | 5.98034 | 3576 ft | 261 kts | 145° |
| 2026-04-22 08:15 | 62.48275 | 6.00564 | 4326 ft | 267 kts | 137° |
| 2026-04-22 08:16 | 62.46933 | 6.03397 | 5108 ft | 272 kts | 134° |
| 2026-04-22 08:16 | 62.45614 | 6.06325 | 5831 ft | 278 kts | 134° |
| 2026-04-22 08:16 | 62.44248 | 6.09363 | 6549 ft | 284 kts | 134° |
| 2026-04-22 08:16 | 62.42844 | 6.12442 | 7275 ft | 290 kts | 135° |
| 2026-04-22 08:17 | 62.41402 | 6.15549 | 8013 ft | 293 kts | 135° |
| 2026-04-22 08:17 | 62.39954 | 6.18619 | 8724 ft | 297 kts | 135° |
| 2026-04-22 08:17 | 62.38467 | 6.21742 | 9446 ft | 300 kts | 135° |
| 2026-04-22 08:17 | 62.36953 | 6.24910 | 10192 ft | 303 kts | 135° |
| 2026-04-22 08:18 | 62.35428 | 6.28093 | 10783 ft | 312 kts | 135° |
| 2026-04-22 08:18 | 62.33808 | 6.31473 | 10949 ft | 335 kts | 135° |
| 2026-04-22 08:18 | 62.32074 | 6.35084 | 11187 ft | 353 kts | 135° |
| 2026-04-22 08:18 | 62.30310 | 6.38748 | 11755 ft | 358 kts | 135° |
| 2026-04-22 08:19 | 62.28502 | 6.42496 | 12427 ft | 361 kts | 135° |
| 2026-04-22 08:19 | 62.26681 | 6.46266 | 13097 ft | 364 kts | 135° |
| 2026-04-22 08:19 | 62.24856 | 6.50040 | 13776 ft | 366 kts | 135° |
| 2026-04-22 08:19 | 62.23009 | 6.53853 | 14419 ft | 369 kts | 135° |
| 2026-04-22 08:20 | 62.21169 | 6.57639 | 15046 ft | 370 kts | 135° |
| 2026-04-22 08:20 | 62.19301 | 6.61475 | 15664 ft | 372 kts | 135° |
| 2026-04-22 08:20 | 62.17422 | 6.65328 | 16319 ft | 374 kts | 134° |
| 2026-04-22 08:20 | 62.15538 | 6.69188 | 16953 ft | 376 kts | 134° |
| 2026-04-22 08:21 | 62.13641 | 6.73070 | 17586 ft | 378 kts | 134° |
| 2026-04-22 08:21 | 62.11757 | 6.76920 | 18183 ft | 380 kts | 134° |
| 2026-04-22 08:21 | 62.09835 | 6.80840 | 18790 ft | 382 kts | 134° |
| 2026-04-22 08:21 | 62.07901 | 6.84781 | 19318 ft | 384 kts | 134° |
| 2026-04-22 08:22 | 62.05982 | 6.88683 | 19850 ft | 386 kts | 134° |
| 2026-04-22 08:22 | 62.04028 | 6.92638 | 20447 ft | 387 kts | 134° |
| 2026-04-22 08:22 | 62.02073 | 6.96583 | 21059 ft | 387 kts | 134° |
| 2026-04-22 08:22 | 62.00113 | 7.00533 | 21593 ft | 389 kts | 134° |
| 2026-04-22 08:23 | 61.98132 | 7.04522 | 22119 ft | 391 kts | 134° |
| 2026-04-22 08:23 | 61.96149 | 7.08514 | 22611 ft | 393 kts | 134° |
| 2026-04-22 08:23 | 61.94184 | 7.12471 | 23070 ft | 396 kts | 134° |
| 2026-04-22 08:23 | 61.92158 | 7.16547 | 23221 ft | 407 kts | 134° |
| 2026-04-22 08:24 | 61.90072 | 7.20737 | 23338 ft | 417 kts | 134° |
| 2026-04-22 08:24 | 61.87936 | 7.25012 | 23479 ft | 427 kts | 134° |
| 2026-04-22 08:24 | 61.85743 | 7.29386 | 23576 ft | 436 kts | 134° |
| 2026-04-22 08:24 | 61.83503 | 7.33840 | 23692 ft | 445 kts | 134° |
| 2026-04-22 08:25 | 61.81225 | 7.38362 | 23843 ft | 453 kts | 134° |
| 2026-04-22 08:25 | 61.78937 | 7.42893 | 23960 ft | 460 kts | 134° |
| 2026-04-22 08:25 | 61.76574 | 7.47550 | 24087 ft | 467 kts | 134° |
| 2026-04-22 08:25 | 61.74178 | 7.52261 | 24203 ft | 472 kts | 134° |
| 2026-04-22 08:26 | 61.71759 | 7.57010 | 24322 ft | 477 kts | 134° |
| 2026-04-22 08:26 | 61.69328 | 7.61771 | 24595 ft | 475 kts | 134° |
| 2026-04-22 08:26 | 61.66912 | 7.66491 | 24968 ft | 472 kts | 134° |
| 2026-04-22 08:26 | 61.64507 | 7.71180 | 25316 ft | 470 kts | 134° |
| 2026-04-22 08:27 | 61.62111 | 7.75842 | 25661 ft | 468 kts | 134° |
| 2026-04-22 08:27 | 61.59725 | 7.80476 | 26010 ft | 467 kts | 134° |
| 2026-04-22 08:27 | 61.57371 | 7.85048 | 26249 ft | 468 kts | 134° |
| 2026-04-22 08:27 | 61.54980 | 7.89689 | 26525 ft | 468 kts | 134° |
| 2026-04-22 08:28 | 61.52594 | 7.94317 | 26843 ft | 467 kts | 133° |
| 2026-04-22 08:28 | 61.50208 | 7.98923 | 27213 ft | 465 kts | 133° |
| 2026-04-22 08:28 | 61.47832 | 8.03487 | 27552 ft | 464 kts | 133° |
| 2026-04-22 08:28 | 61.45450 | 8.08045 | 27902 ft | 462 kts | 133° |
| 2026-04-22 08:29 | 61.43071 | 8.12580 | 28267 ft | 460 kts | 133° |
| 2026-04-22 08:29 | 61.40702 | 8.17085 | 28599 ft | 459 kts | 133° |
| 2026-04-22 08:29 | 61.38384 | 8.21501 | 28961 ft | 457 kts | 133° |
| 2026-04-22 08:29 | 61.36038 | 8.25972 | 29334 ft | 455 kts | 133° |
| 2026-04-22 08:30 | 61.33707 | 8.30412 | 29688 ft | 453 kts | 133° |
| 2026-04-22 08:30 | 61.31373 | 8.34851 | 30043 ft | 452 kts | 133° |
| 2026-04-22 08:30 | 61.29053 | 8.39249 | 30391 ft | 450 kts | 133° |
| 2026-04-22 08:30 | 61.26756 | 8.43585 | 30634 ft | 450 kts | 133° |
| 2026-04-22 08:31 | 61.24428 | 8.47967 | 30890 ft | 450 kts | 133° |
| 2026-04-22 08:31 | 61.22108 | 8.52328 | 31164 ft | 449 kts | 132° |
| 2026-04-22 08:31 | 61.17468 | 8.61016 | 31781 ft | 446 kts | 132° |
| 2026-04-22 08:32 | 61.15165 | 8.65313 | 32070 ft | 445 kts | 132° |
| 2026-04-22 08:32 | 61.12889 | 8.69551 | 32384 ft | 443 kts | 132° |
| 2026-04-22 08:32 | 61.10599 | 8.73805 | 32698 ft | 441 kts | 132° |
| 2026-04-22 08:32 | 61.08315 | 8.78038 | 33014 ft | 440 kts | 132° |
| 2026-04-22 08:33 | 61.06040 | 8.82246 | 33323 ft | 438 kts | 132° |
| 2026-04-22 08:33 | 61.03763 | 8.86456 | 33656 ft | 435 kts | 131° |
| 2026-04-22 08:33 | 61.01548 | 8.90554 | 34066 ft | 431 kts | 131° |
| 2026-04-22 08:33 | 60.99312 | 8.94676 | 34407 ft | 428 kts | 131° |
| 2026-04-22 08:34 | 60.97080 | 8.98778 | 34667 ft | 428 kts | 131° |
| 2026-04-22 08:34 | 60.94858 | 9.02863 | 34809 ft | 430 kts | 131° |
| 2026-04-22 08:34 | 60.92623 | 9.06966 | 34948 ft | 431 kts | 131° |
| 2026-04-22 08:34 | 60.90380 | 9.11074 | 35114 ft | 432 kts | 132° |
| 2026-04-22 08:35 | 60.88129 | 9.15182 | 35282 ft | 433 kts | 132° |
| 2026-04-22 08:35 | 60.83638 | 9.23333 | 35334 ft | 434 kts | 132° |
| 2026-04-22 08:36 | 60.79097 | 9.31548 | 35330 ft | 434 kts | 132° |
| 2026-04-22 08:36 | 60.74584 | 9.39681 | 35322 ft | 434 kts | 132° |
| 2026-04-22 08:37 | 60.70041 | 9.47839 | 35336 ft | 433 kts | 132° |
| 2026-04-22 08:37 | 60.65549 | 9.55885 | 35323 ft | 431 kts | 132° |
| 2026-04-22 08:38 | 60.61023 | 9.63963 | 35311 ft | 432 kts | 132° |
| 2026-04-22 08:38 | 60.56480 | 9.72043 | 35310 ft | 434 kts | 132° |
| 2026-04-22 08:39 | 60.51952 | 9.80050 | 35308 ft | 434 kts | 132° |
| 2026-04-22 08:39 | 60.47380 | 9.88099 | 35308 ft | 434 kts | 132° |
| 2026-04-22 08:40 | 60.42797 | 9.96140 | 35312 ft | 435 kts | 132° |
| 2026-04-22 08:40 | 60.38232 | 10.04119 | 35322 ft | 435 kts | 132° |
| 2026-04-22 08:41 | 60.33666 | 10.12082 | 35347 ft | 434 kts | 132° |
| 2026-04-22 08:41 | 60.29074 | 10.20050 | 35333 ft | 435 kts | 132° |
| 2026-04-22 08:42 | 60.24470 | 10.28010 | 35329 ft | 435 kts | 132° |
| 2026-04-22 08:42 | 60.19891 | 10.35899 | 35325 ft | 436 kts | 132° |
| 2026-04-22 08:43 | 60.15264 | 10.43837 | 35325 ft | 436 kts | 132° |
| 2026-04-22 08:43 | 60.10670 | 10.51680 | 35320 ft | 436 kts | 132° |
| 2026-04-22 08:44 | 60.06025 | 10.59589 | 35322 ft | 436 kts | 132° |
| 2026-04-22 08:44 | 60.01398 | 10.67436 | 35341 ft | 436 kts | 132° |
| 2026-04-22 08:45 | 59.96802 | 10.75196 | 35324 ft | 434 kts | 132° |
| 2026-04-22 08:45 | 59.92174 | 10.82984 | 35319 ft | 434 kts | 132° |
| 2026-04-22 08:46 | 59.87569 | 10.90705 | 35322 ft | 435 kts | 132° |
| 2026-04-22 08:46 | 59.82926 | 10.98466 | 35328 ft | 435 kts | 132° |
| 2026-04-22 08:47 | 59.78302 | 11.06167 | 35331 ft | 435 kts | 132° |
| 2026-04-22 08:47 | 59.73660 | 11.13883 | 35323 ft | 435 kts | 132° |
| 2026-04-22 08:48 | 59.69010 | 11.21582 | 35362 ft | 435 kts | 132° |
| 2026-04-22 08:48 | 59.64379 | 11.29210 | 35344 ft | 435 kts | 132° |
| 2026-04-22 08:49 | 59.59714 | 11.36852 | 35338 ft | 435 kts | 132° |
| 2026-04-22 08:49 | 59.55039 | 11.44489 | 35337 ft | 435 kts | 132° |
| 2026-04-22 08:50 | 59.50363 | 11.52085 | 35327 ft | 435 kts | 132° |
| 2026-04-22 08:50 | 59.45718 | 11.59609 | 35327 ft | 435 kts | 132° |
| 2026-04-22 08:51 | 59.41041 | 11.67172 | 35329 ft | 435 kts | 132° |
| 2026-04-22 08:51 | 59.36375 | 11.74677 | 35334 ft | 436 kts | 132° |
| 2026-04-22 08:52 | 59.31677 | 11.82190 | 35342 ft | 435 kts | 132° |
| 2026-04-22 08:52 | 59.27020 | 11.89778 | 35342 ft | 434 kts | 131° |
| 2026-04-22 08:53 | 59.22421 | 11.97438 | 35331 ft | 434 kts | 131° |
| 2026-04-22 08:53 | 59.17846 | 12.05035 | 35329 ft | 434 kts | 131° |
| 2026-04-22 08:54 | 59.13215 | 12.12626 | 35328 ft | 434 kts | 131° |
| 2026-04-22 08:54 | 59.08575 | 12.20161 | 35328 ft | 434 kts | 131° |
| 2026-04-22 08:55 | 59.03962 | 12.27652 | 35328 ft | 434 kts | 131° |
| 2026-04-22 08:55 | 58.99316 | 12.35174 | 35345 ft | 434 kts | 131° |
| 2026-04-22 08:56 | 58.94675 | 12.42666 | 35339 ft | 433 kts | 131° |
| 2026-04-22 08:56 | 58.90078 | 12.50074 | 35335 ft | 432 kts | 131° |
| 2026-04-22 08:57 | 58.85446 | 12.57497 | 35332 ft | 432 kts | 131° |
| 2026-04-22 08:57 | 58.80807 | 12.64895 | 35332 ft | 432 kts | 131° |
| 2026-04-22 08:58 | 58.76202 | 12.72235 | 35344 ft | 432 kts | 131° |
| 2026-04-22 08:58 | 58.71743 | 12.79307 | 35334 ft | 433 kts | 131° |
| 2026-04-22 08:59 | 58.67087 | 12.86664 | 35347 ft | 433 kts | 131° |
| 2026-04-22 08:59 | 58.62488 | 12.93867 | 35303 ft | 416 kts | 131° |
| 2026-04-22 08:59 | 58.60272 | 12.97313 | 35305 ft | 401 kts | 131° |
| 2026-04-22 09:00 | 58.58851 | 12.99524 | 35310 ft | 391 kts | 131° |
| 2026-04-22 09:00 | 58.56779 | 13.02754 | 35306 ft | 376 kts | 130° |
| 2026-04-22 09:00 | 58.54779 | 13.05877 | 35308 ft | 364 kts | 130° |
| 2026-04-22 09:01 | 58.50907 | 13.11962 | 35310 ft | 360 kts | 130° |
| 2026-04-22 09:01 | 58.47034 | 13.18037 | 35315 ft | 360 kts | 130° |
| 2026-04-22 09:02 | 58.43132 | 13.24094 | 35318 ft | 361 kts | 130° |
| 2026-04-22 09:02 | 58.39242 | 13.30115 | 35312 ft | 361 kts | 130° |
| 2026-04-22 09:03 | 58.35348 | 13.36122 | 35308 ft | 362 kts | 130° |
| 2026-04-22 09:03 | 58.31414 | 13.42152 | 35332 ft | 362 kts | 130° |
| 2026-04-22 09:04 | 58.27515 | 13.48128 | 35326 ft | 361 kts | 130° |
| 2026-04-22 09:04 | 58.23604 | 13.54108 | 35322 ft | 360 kts | 131° |
| 2026-04-22 09:05 | 58.19691 | 13.60068 | 35319 ft | 360 kts | 131° |
| 2026-04-22 09:05 | 58.15794 | 13.65980 | 35321 ft | 360 kts | 131° |
| 2026-04-22 09:06 | 58.11876 | 13.71923 | 35311 ft | 360 kts | 130° |
| 2026-04-22 09:06 | 58.07979 | 13.77818 | 35306 ft | 361 kts | 130° |
| 2026-04-22 09:07 | 58.04040 | 13.83748 | 35302 ft | 361 kts | 130° |
| 2026-04-22 09:07 | 58.00102 | 13.89664 | 35291 ft | 361 kts | 130° |
| 2026-04-22 09:08 | 57.96189 | 13.95536 | 35294 ft | 361 kts | 130° |
| 2026-04-22 09:08 | 57.92243 | 14.01437 | 35296 ft | 362 kts | 131° |
| 2026-04-22 09:09 | 57.88287 | 14.07315 | 35256 ft | 362 kts | 131° |
| 2026-04-22 09:09 | 57.84353 | 14.13154 | 35278 ft | 362 kts | 130° |
| 2026-04-22 09:10 | 57.80389 | 14.19017 | 35262 ft | 362 kts | 131° |
| 2026-04-22 09:10 | 57.76420 | 14.24872 | 35257 ft | 363 kts | 131° |
| 2026-04-22 09:11 | 57.72467 | 14.30696 | 35263 ft | 363 kts | 131° |
| 2026-04-22 09:11 | 57.68484 | 14.36540 | 35264 ft | 363 kts | 131° |
| 2026-04-22 09:12 | 57.64534 | 14.42334 | 35290 ft | 363 kts | 131° |
| 2026-04-22 09:12 | 57.60549 | 14.48155 | 35282 ft | 363 kts | 131° |
| 2026-04-22 09:13 | 57.56542 | 14.53970 | 35281 ft | 364 kts | 131° |
| 2026-04-22 09:13 | 57.52575 | 14.59721 | 35286 ft | 364 kts | 131° |
| 2026-04-22 09:14 | 57.48559 | 14.65542 | 35269 ft | 364 kts | 131° |
| 2026-04-22 09:14 | 57.44567 | 14.71305 | 35265 ft | 365 kts | 131° |
| 2026-04-22 09:15 | 57.40541 | 14.77089 | 35253 ft | 365 kts | 131° |
| 2026-04-22 09:15 | 57.36542 | 14.82831 | 35256 ft | 365 kts | 131° |
| 2026-04-22 09:16 | 57.32512 | 14.88591 | 35257 ft | 365 kts | 132° |
| 2026-04-22 09:16 | 57.28474 | 14.94332 | 35252 ft | 366 kts | 133° |
| 2026-04-22 09:17 | 57.24446 | 15.00065 | 35234 ft | 367 kts | 133° |
| 2026-04-22 09:17 | 57.20383 | 15.05844 | 35244 ft | 368 kts | 133° |
| 2026-04-22 09:18 | 57.16334 | 15.11580 | 35231 ft | 369 kts | 133° |
| 2026-04-22 09:18 | 57.12248 | 15.17346 | 35231 ft | 369 kts | 133° |
| 2026-04-22 09:19 | 57.08153 | 15.23100 | 35232 ft | 370 kts | 133° |
| 2026-04-22 09:19 | 57.04076 | 15.28811 | 35227 ft | 370 kts | 133° |
| 2026-04-22 09:20 | 56.99993 | 15.34507 | 35228 ft | 370 kts | 133° |
| 2026-04-22 09:20 | 56.95887 | 15.40233 | 35243 ft | 370 kts | 134° |
| 2026-04-22 09:21 | 56.91790 | 15.45937 | 35232 ft | 372 kts | 134° |
| 2026-04-22 09:21 | 56.87649 | 15.51685 | 35217 ft | 373 kts | 134° |
| 2026-04-22 09:22 | 56.83507 | 15.57415 | 35217 ft | 373 kts | 134° |
| 2026-04-22 09:22 | 56.79380 | 15.63100 | 35208 ft | 374 kts | 134° |
| 2026-04-22 09:23 | 56.75214 | 15.68821 | 35213 ft | 374 kts | 134° |